createdAt,value
2023-05-14T00:00:39.532Z,19.08
2023-05-14T00:01:43.085Z,21.27
2023-05-14T00:02:46.228Z,16.88
2023-05-14T00:03:50.221Z,17.58
2023-05-14T00:04:53.786Z,18.27
2023-05-14T00:05:58.417Z,18.65
2023-05-14T00:07:01.627Z,20.08
2023-05-14T00:08:05.312Z,16.25
2023-05-14T00:09:08.469Z,19.88
2023-05-14T00:10:11.934Z,18.42
2023-05-14T00:11:16.459Z,19.15
2023-05-14T00:12:19.974Z,22.48
2023-05-14T00:13:23.194Z,20.10
2023-05-14T00:14:26.475Z,19.88
2023-05-14T00:15:30.033Z,24.35
2023-05-14T00:16:33.577Z,21.20
2023-05-14T00:17:37.890Z,20.02
2023-05-14T00:18:41.060Z,21.05
2023-05-14T00:19:44.355Z,17.15
2023-05-14T00:20:47.458Z,18.98
2023-05-14T00:21:50.687Z,20.80
2023-05-14T00:22:53.817Z,17.55
2023-05-14T00:23:57.154Z,18.42
2023-05-14T00:25:00.570Z,25.17
2023-05-14T00:26:03.757Z,17.05
2023-05-14T00:27:07.308Z,22.48
2023-05-14T00:28:10.726Z,19.73
2023-05-14T00:29:13.900Z,18.80
2023-05-14T00:30:17.149Z,14.38
2023-05-14T00:31:20.431Z,19.13
2023-05-14T00:32:24.482Z,17.75
2023-05-14T00:33:28.092Z,17.70
2023-05-14T00:34:31.355Z,15.50
2023-05-14T00:35:36.000Z,15.82
2023-05-14T00:36:39.335Z,16.88
2023-05-14T00:37:42.637Z,19.08
2023-05-14T00:38:45.829Z,15.60
2023-05-14T00:39:48.948Z,20.10
2023-05-14T00:40:52.215Z,17.02
2023-05-14T00:41:55.787Z,20.00
2023-05-14T00:42:58.899Z,21.50
2023-05-14T00:44:04.259Z,17.15
2023-05-14T00:45:08.450Z,21.45
2023-05-14T00:46:12.655Z,18.13
2023-05-14T00:47:16.064Z,19.38
2023-05-14T00:48:21.272Z,16.27
2023-05-14T00:49:24.972Z,18.50
2023-05-14T00:50:28.436Z,20.38
2023-05-14T00:51:31.739Z,17.67
2023-05-14T00:52:34.923Z,20.08
2023-05-14T00:53:38.191Z,22.15
2023-05-14T00:54:41.487Z,22.02
2023-05-14T00:55:46.884Z,17.60
2023-05-14T00:56:50.787Z,17.52
2023-05-14T00:57:57.956Z,17.90
2023-05-14T00:59:02.035Z,15.48
2023-05-14T01:00:06.556Z,22.08
2023-05-14T01:01:10.387Z,19.75
2023-05-14T01:02:13.404Z,19.35
2023-05-14T01:03:16.805Z,19.05
2023-05-14T01:04:20.321Z,17.60
2023-05-14T01:05:29.621Z,24.67
2023-05-14T01:06:53.729Z,18.23
2023-05-14T01:08:27.690Z,19.17
2023-05-14T01:09:59.742Z,27.60
2023-05-14T01:11:20.319Z,19.15
2023-05-14T01:12:53.609Z,18.92
2023-05-14T01:14:52.424Z,19.95
2023-05-14T01:15:58.401Z,24.83
2023-05-14T01:17:04.741Z,17.92
2023-05-14T01:18:13.799Z,20.75
2023-05-14T01:19:39.443Z,18.75
2023-05-14T01:20:43.047Z,22.52
2023-05-14T01:21:46.354Z,21.30
2023-05-14T01:22:49.744Z,16.73
2023-05-14T01:23:52.959Z,14.82
2023-05-14T01:24:56.330Z,22.10
2023-05-14T01:25:59.635Z,19.83
2023-05-14T01:27:35.876Z,17.15
2023-05-14T01:28:41.827Z,17.98
2023-05-14T01:30:16.015Z,24.85
2023-05-14T01:31:25.407Z,18.52
2023-05-14T01:32:30.627Z,18.45
2023-05-14T01:33:35.888Z,20.35
2023-05-14T01:34:41.085Z,23.70
2023-05-14T01:35:45.385Z,20.85
2023-05-14T01:36:50.368Z,18.42
2023-05-14T01:38:03.588Z,23.88
2023-05-14T01:39:11.603Z,22.63
2023-05-14T01:40:15.701Z,21.05
2023-05-14T01:41:21.990Z,19.17
2023-05-14T01:42:26.486Z,25.35
2023-05-14T01:43:31.831Z,20.40
2023-05-14T01:44:35.551Z,29.15
2023-05-14T01:45:38.616Z,23.75
2023-05-14T01:46:42.001Z,23.30
2023-05-14T01:47:45.350Z,22.63
2023-05-14T01:48:48.618Z,15.75
2023-05-14T01:49:51.833Z,20.35
2023-05-14T01:50:54.879Z,18.25
2023-05-14T01:51:57.899Z,20.88
2023-05-14T01:53:01.283Z,24.20
2023-05-14T01:54:04.738Z,20.42
2023-05-14T01:55:08.911Z,19.15
2023-05-14T01:56:12.083Z,24.38
2023-05-14T01:57:15.178Z,22.60
2023-05-14T01:58:18.363Z,17.48
2023-05-14T01:59:21.398Z,19.27
2023-05-14T02:00:27.828Z,21.70
2023-05-14T02:01:31.825Z,17.48
2023-05-14T02:02:35.124Z,19.38
2023-05-14T02:03:38.406Z,21.20
2023-05-14T02:04:41.509Z,19.58
2023-05-14T02:05:44.527Z,19.90
2023-05-14T02:06:47.562Z,18.83
2023-05-14T02:07:51.417Z,23.23
2023-05-14T02:08:54.480Z,22.02
2023-05-14T02:09:58.150Z,19.73
2023-05-14T02:11:01.242Z,19.85
2023-05-14T02:12:04.694Z,18.52
2023-05-14T02:13:09.558Z,19.23
2023-05-14T02:14:12.816Z,21.73
2023-05-14T02:15:15.923Z,20.02
2023-05-14T02:16:19.340Z,20.10
2023-05-14T02:17:22.969Z,21.58
2023-05-14T02:18:26.379Z,19.75
2023-05-14T02:19:30.236Z,22.13
2023-05-14T02:20:33.963Z,20.13
2023-05-14T02:21:36.959Z,21.27
2023-05-14T02:22:42.337Z,21.90
2023-05-14T02:23:45.493Z,20.77
2023-05-14T02:24:49.772Z,18.63
2023-05-14T02:25:54.291Z,20.55
2023-05-14T02:27:01.044Z,16.60
2023-05-14T02:28:04.302Z,19.40
2023-05-14T02:29:07.537Z,21.75
2023-05-14T02:30:11.782Z,21.20
2023-05-14T02:31:17.630Z,21.23
2023-05-14T02:32:22.370Z,20.35
2023-05-14T02:33:25.766Z,20.02
2023-05-14T02:34:29.139Z,19.85
2023-05-14T02:35:32.338Z,25.67
2023-05-14T02:36:35.715Z,20.20
2023-05-14T02:37:38.823Z,18.90
2023-05-14T02:38:42.227Z,28.85
2023-05-14T02:39:45.634Z,18.98
2023-05-14T02:40:48.920Z,18.30
2023-05-14T02:41:52.555Z,19.02
2023-05-14T02:42:55.555Z,19.25
2023-05-14T02:43:58.584Z,19.95
2023-05-14T02:45:01.892Z,18.38
2023-05-14T02:46:07.418Z,18.58
2023-05-14T02:47:10.848Z,18.27
2023-05-14T02:48:14.342Z,19.15
2023-05-14T02:49:17.452Z,23.05
2023-05-14T02:50:20.737Z,19.83
2023-05-14T02:51:24.396Z,18.65
2023-05-14T02:52:27.508Z,17.80
2023-05-14T02:53:30.779Z,17.23
2023-05-14T02:54:33.930Z,21.05
2023-05-14T02:55:37.430Z,20.80
2023-05-14T02:56:40.577Z,18.95
2023-05-14T02:57:44.005Z,24.15
2023-05-14T02:58:47.910Z,18.80
2023-05-14T02:59:51.123Z,20.45
2023-05-14T03:00:54.987Z,20.83
2023-05-14T03:01:58.828Z,25.55
2023-05-14T03:03:02.724Z,18.77
2023-05-14T03:04:07.774Z,18.10
2023-05-14T03:05:11.005Z,21.13
2023-05-14T03:06:14.076Z,20.15
2023-05-14T03:07:17.189Z,19.45
2023-05-14T03:08:20.637Z,16.95
2023-05-14T03:09:23.906Z,22.30
2023-05-14T03:10:27.462Z,24.65
2023-05-14T03:11:30.878Z,26.23
2023-05-14T03:12:33.997Z,24.55
2023-05-14T03:13:37.450Z,21.25
2023-05-14T03:14:40.560Z,18.20
2023-05-14T03:15:47.464Z,18.02
2023-05-14T03:16:50.904Z,20.40
2023-05-14T03:17:54.597Z,25.90
2023-05-14T03:18:57.939Z,24.50
2023-05-14T03:20:01.137Z,20.85
2023-05-14T03:21:04.288Z,22.35
2023-05-14T03:22:07.566Z,16.20
2023-05-14T03:23:10.744Z,20.33
2023-05-14T03:24:13.822Z,19.75
2023-05-14T03:25:17.058Z,18.52
2023-05-14T03:26:21.672Z,20.77
2023-05-14T03:27:24.936Z,17.77
2023-05-14T03:28:28.463Z,19.08
2023-05-14T03:29:31.729Z,20.85
2023-05-14T03:30:35.028Z,21.92
2023-05-14T03:31:38.456Z,20.98
2023-05-14T03:32:42.894Z,20.30
2023-05-14T03:33:46.185Z,23.77
2023-05-14T03:34:49.427Z,24.38
2023-05-14T03:35:52.457Z,19.67
2023-05-14T03:36:58.339Z,16.77
2023-05-14T03:38:01.483Z,18.25
2023-05-14T03:39:06.968Z,18.35
2023-05-14T03:40:12.838Z,23.30
2023-05-14T03:41:16.021Z,17.58
2023-05-14T03:42:21.396Z,18.70
2023-05-14T03:43:24.760Z,24.92
2023-05-14T03:44:28.194Z,17.95
2023-05-14T03:45:31.342Z,18.83
2023-05-14T03:46:35.879Z,16.35
2023-05-14T03:47:39.249Z,16.35
2023-05-14T03:48:42.690Z,14.32
2023-05-14T03:49:45.923Z,16.80
2023-05-14T03:50:52.756Z,19.23
2023-05-14T03:51:55.998Z,16.38
2023-05-14T03:52:59.314Z,18.15
2023-05-14T03:54:03.434Z,22.15
2023-05-14T03:55:07.448Z,20.10
2023-05-14T03:56:10.575Z,14.65
2023-05-14T03:57:13.778Z,13.73
2023-05-14T03:58:17.619Z,16.00
2023-05-14T03:59:20.932Z,17.75
2023-05-14T04:00:24.235Z,19.55
2023-05-14T04:01:28.916Z,16.23
2023-05-14T04:02:34.422Z,17.05
2023-05-14T04:03:37.935Z,18.65
2023-05-14T04:04:42.286Z,15.80
2023-05-14T04:05:46.192Z,21.02
2023-05-14T04:06:49.378Z,20.30
2023-05-14T04:07:52.703Z,15.90
2023-05-14T04:08:57.099Z,15.13
2023-05-14T04:10:03.978Z,15.68
2023-05-14T04:11:08.474Z,16.83
2023-05-14T04:12:11.786Z,17.27
2023-05-14T04:13:15.582Z,21.35
2023-05-14T04:14:18.620Z,20.17
2023-05-14T04:15:22.214Z,15.70
2023-05-14T04:16:25.427Z,16.88
2023-05-14T04:17:28.657Z,17.65
2023-05-14T04:18:35.465Z,15.02
2023-05-14T04:19:39.479Z,16.55
2023-05-14T04:20:42.786Z,16.92
2023-05-14T04:21:45.923Z,17.80
2023-05-14T04:22:49.051Z,14.85
2023-05-14T04:23:52.280Z,16.13
2023-05-14T04:24:55.446Z,13.77
2023-05-14T04:25:59.374Z,15.55
2023-05-14T04:27:02.638Z,16.45
2023-05-14T04:28:06.081Z,17.17
2023-05-14T04:29:09.296Z,15.48
2023-05-14T04:30:12.954Z,16.67
2023-05-14T04:31:16.464Z,15.52
2023-05-14T04:32:19.697Z,19.38
2023-05-14T04:33:22.923Z,15.38
2023-05-14T04:34:26.470Z,20.33
2023-05-14T04:35:29.613Z,13.75
2023-05-14T04:36:32.934Z,13.90
2023-05-14T04:37:36.427Z,13.50
2023-05-14T04:38:40.045Z,12.32
2023-05-14T04:39:43.609Z,12.82
2023-05-14T04:40:46.751Z,16.00
2023-05-14T04:41:50.019Z,11.18
2023-05-14T04:42:53.423Z,13.68
2023-05-14T04:43:56.957Z,15.02
2023-05-14T04:45:00.550Z,14.13
2023-05-14T04:46:03.894Z,14.02
2023-05-14T04:47:07.619Z,14.32
2023-05-14T04:48:11.104Z,9.82
2023-05-14T04:49:14.264Z,12.95
2023-05-14T04:50:17.548Z,11.02
2023-05-14T04:51:20.888Z,12.40
2023-05-14T04:52:24.648Z,16.95
2023-05-14T04:53:27.795Z,11.93
2023-05-14T04:54:30.956Z,11.23
2023-05-14T04:55:34.057Z,12.75
2023-05-14T04:56:37.344Z,12.82
2023-05-14T04:57:40.459Z,15.93
2023-05-14T04:58:43.578Z,13.63
2023-05-14T04:59:46.677Z,10.65
2023-05-14T05:00:50.326Z,10.30
2023-05-14T05:01:53.514Z,12.43
2023-05-14T05:02:56.864Z,14.25
2023-05-14T05:04:00.120Z,11.88
2023-05-14T05:05:04.227Z,11.02
2023-05-14T05:06:07.815Z,11.98
2023-05-14T05:07:11.002Z,14.30
2023-05-14T05:08:14.149Z,15.88
2023-05-14T05:09:18.839Z,14.60
2023-05-14T05:10:22.319Z,13.02
2023-05-14T05:11:25.584Z,11.20
2023-05-14T05:12:31.862Z,9.85
2023-05-14T05:13:35.028Z,11.25
2023-05-14T05:14:38.333Z,10.55
2023-05-14T05:15:41.475Z,10.55
2023-05-14T05:16:45.089Z,9.85
2023-05-14T05:17:48.499Z,11.88
2023-05-14T05:18:52.119Z,11.70
2023-05-14T05:19:57.252Z,10.15
2023-05-14T05:21:00.784Z,11.30
2023-05-14T05:22:04.088Z,14.70
2023-05-14T05:23:07.373Z,14.98
2023-05-14T05:24:10.548Z,12.07
2023-05-14T05:25:13.693Z,8.82
2023-05-14T05:26:16.876Z,12.05
2023-05-14T05:27:22.216Z,9.63
2023-05-14T05:28:25.537Z,13.10
2023-05-14T05:29:28.614Z,8.43
2023-05-14T05:30:31.916Z,10.15
2023-05-14T05:31:35.171Z,13.32
2023-05-14T05:32:38.632Z,11.23
2023-05-14T05:33:41.891Z,10.73
2023-05-14T05:34:45.375Z,10.18
2023-05-14T05:35:50.158Z,11.18
2023-05-14T05:36:53.425Z,7.97
2023-05-14T05:38:01.299Z,10.40
2023-05-14T05:39:04.915Z,10.73
2023-05-14T05:40:10.253Z,9.63
2023-05-14T05:41:13.792Z,9.77
2023-05-14T05:42:16.892Z,10.05
2023-05-14T05:43:20.066Z,9.32
2023-05-14T05:44:23.153Z,10.10
2023-05-14T05:45:26.523Z,8.23
2023-05-14T05:46:29.903Z,11.15
2023-05-14T05:47:33.159Z,11.57
2023-05-14T05:48:36.270Z,18.65
2023-05-14T05:49:39.367Z,11.77
2023-05-14T05:50:44.770Z,8.73
2023-05-14T05:51:48.211Z,11.85
2023-05-14T05:52:52.252Z,10.98
2023-05-14T05:53:55.430Z,7.75
2023-05-14T05:54:59.229Z,9.40
2023-05-14T05:56:02.427Z,10.15
2023-05-14T05:57:06.203Z,10.00
2023-05-14T05:58:09.433Z,11.93
2023-05-14T05:59:12.802Z,10.20
2023-05-14T06:00:16.955Z,10.68
2023-05-14T06:01:20.248Z,11.10
2023-05-14T06:02:23.438Z,11.25
2023-05-14T06:03:27.199Z,14.15
2023-05-14T06:04:30.406Z,9.32
2023-05-14T06:05:33.682Z,9.45
2023-05-14T06:06:37.016Z,9.43
2023-05-14T06:07:40.318Z,8.63
2023-05-14T06:08:43.761Z,11.32
2023-05-14T06:09:47.102Z,9.80
2023-05-14T06:10:50.397Z,8.02
2023-05-14T06:11:53.638Z,11.70
2023-05-14T06:12:56.880Z,8.88
2023-05-14T06:14:00.222Z,10.60
2023-05-14T06:15:04.005Z,7.13
2023-05-14T06:16:07.458Z,9.80
2023-05-14T06:17:10.543Z,9.10
2023-05-14T06:18:14.000Z,9.85
2023-05-14T06:19:19.756Z,9.05
2023-05-14T06:20:23.262Z,8.23
2023-05-14T06:21:26.594Z,10.02
2023-05-14T06:22:30.025Z,9.60
2023-05-14T06:23:33.572Z,8.75
2023-05-14T06:24:36.696Z,7.40
2023-05-14T06:25:39.993Z,6.70
2023-05-14T06:26:43.392Z,5.95
2023-05-14T06:27:46.671Z,9.75
2023-05-14T06:28:49.927Z,10.05
2023-05-14T06:29:53.193Z,7.93
2023-05-14T06:30:56.446Z,9.82
2023-05-14T06:32:04.255Z,8.95
2023-05-14T06:33:07.632Z,7.40
2023-05-14T06:34:11.428Z,7.15
2023-05-14T06:35:15.240Z,6.82
2023-05-14T06:36:18.728Z,9.05
2023-05-14T06:37:22.013Z,10.55
2023-05-14T06:38:25.720Z,6.93
2023-05-14T06:39:28.940Z,6.72
2023-05-14T06:40:32.232Z,8.77
2023-05-14T06:41:35.346Z,9.27
2023-05-14T06:42:38.685Z,9.88
2023-05-14T06:43:41.864Z,6.75
2023-05-14T06:44:46.065Z,7.65
2023-05-14T06:45:51.140Z,11.20
2023-05-14T06:46:54.346Z,6.45
2023-05-14T06:47:58.721Z,9.23
2023-05-14T06:49:02.237Z,5.97
2023-05-14T06:50:05.786Z,6.68
2023-05-14T06:51:09.462Z,11.65
2023-05-14T06:52:12.854Z,11.65
2023-05-14T06:53:16.956Z,6.18
2023-05-14T06:54:20.710Z,7.32
2023-05-14T06:55:24.022Z,7.35
2023-05-14T06:56:27.259Z,9.15
2023-05-14T06:57:30.633Z,6.55
2023-05-14T06:58:33.770Z,8.10
2023-05-14T06:59:37.147Z,7.20
2023-05-14T07:00:40.675Z,7.53
2023-05-14T07:01:44.169Z,8.98
2023-05-14T07:02:47.580Z,9.15
2023-05-14T07:03:50.738Z,6.88
2023-05-14T07:04:54.292Z,9.90
2023-05-14T07:05:57.616Z,5.75
2023-05-14T07:07:00.920Z,7.13
2023-05-14T07:08:04.527Z,8.38
2023-05-14T07:09:07.866Z,6.20
2023-05-14T07:10:12.804Z,6.82
2023-05-14T07:11:16.189Z,8.73
2023-05-14T07:12:19.492Z,5.22
2023-05-14T07:13:22.848Z,7.35
2023-05-14T07:14:26.146Z,5.75
2023-05-14T07:15:29.292Z,9.32
2023-05-14T07:16:32.602Z,5.68
2023-05-14T07:17:35.997Z,6.55
2023-05-14T07:18:39.337Z,8.45
2023-05-14T07:19:42.660Z,8.10
2023-05-14T07:20:45.932Z,8.77
2023-05-14T07:21:49.131Z,6.90
2023-05-14T07:22:53.470Z,10.93
2023-05-14T07:23:59.599Z,6.75
2023-05-14T07:25:03.212Z,7.55
2023-05-14T07:26:06.671Z,13.38
2023-05-14T07:27:09.926Z,9.32
2023-05-14T07:28:13.244Z,8.60
2023-05-14T07:29:16.423Z,7.68
2023-05-14T07:30:19.759Z,8.20
2023-05-14T07:31:23.596Z,8.10
2023-05-14T07:32:26.908Z,8.55
2023-05-14T07:33:30.261Z,13.73
2023-05-14T07:34:33.476Z,10.48
2023-05-14T07:35:36.803Z,10.40
2023-05-14T07:36:40.132Z,11.55
2023-05-14T07:37:43.531Z,9.27
2023-05-14T07:38:46.653Z,7.57
2023-05-14T07:39:49.749Z,7.05
2023-05-14T07:40:52.956Z,8.90
2023-05-14T07:41:56.112Z,15.13
2023-05-14T07:42:59.366Z,7.05
2023-05-14T07:44:02.595Z,9.48
2023-05-14T07:45:06.548Z,7.07
2023-05-14T07:46:09.794Z,9.90
2023-05-14T07:47:13.094Z,11.85
2023-05-14T07:48:16.264Z,12.88
2023-05-14T07:49:19.466Z,14.27
2023-05-14T07:50:24.183Z,10.88
2023-05-14T07:51:28.647Z,6.68
2023-05-14T07:52:32.058Z,8.23
2023-05-14T07:53:35.558Z,7.50
2023-05-14T07:54:38.945Z,6.63
2023-05-14T07:55:42.250Z,9.93
2023-05-14T07:56:45.408Z,9.38
2023-05-14T07:57:48.800Z,7.07
2023-05-14T07:58:52.018Z,11.63
2023-05-14T07:59:56.542Z,6.47
2023-05-14T08:01:01.346Z,7.80
2023-05-14T08:02:04.998Z,6.28
2023-05-14T08:03:08.609Z,7.47
2023-05-14T08:04:13.220Z,6.28
2023-05-14T08:05:16.999Z,6.25
2023-05-14T08:06:21.881Z,4.95
2023-05-14T08:07:25.634Z,4.78
2023-05-14T08:08:28.892Z,3.38
2023-05-14T08:09:32.361Z,3.58
2023-05-14T08:10:35.782Z,4.40
2023-05-14T08:11:39.467Z,6.60
2023-05-14T08:12:43.021Z,4.28
2023-05-14T08:13:46.074Z,4.57
2023-05-14T08:14:49.335Z,3.15
2023-05-14T08:15:52.794Z,8.65
2023-05-14T08:16:56.106Z,6.57
2023-05-14T08:18:03.587Z,6.03
2023-05-14T08:19:07.341Z,3.53
2023-05-14T08:20:12.089Z,4.13
2023-05-14T08:21:15.539Z,3.97
2023-05-14T08:22:18.846Z,10.35
2023-05-14T08:23:22.798Z,3.65
2023-05-14T08:24:26.221Z,4.22
2023-05-14T08:25:29.494Z,5.07
2023-05-14T08:26:32.684Z,6.60
2023-05-14T08:27:36.189Z,3.58
2023-05-14T08:28:39.533Z,2.35
2023-05-14T08:29:42.754Z,3.72
2023-05-14T08:30:45.945Z,5.25
2023-05-14T08:31:51.301Z,3.42
2023-05-14T08:32:55.169Z,4.22
2023-05-14T08:33:58.393Z,3.80
2023-05-14T08:35:01.729Z,8.27
2023-05-14T08:36:05.870Z,3.95
2023-05-14T08:37:09.119Z,8.05
2023-05-14T08:38:12.515Z,6.38
2023-05-14T08:39:15.928Z,3.95
2023-05-14T08:40:19.183Z,6.47
2023-05-14T08:41:22.525Z,5.25
2023-05-14T08:42:27.046Z,3.65
2023-05-14T08:44:04.182Z,7.80
2023-05-14T08:45:21.599Z,3.58
2023-05-14T08:46:26.334Z,4.38
2023-05-14T08:47:31.277Z,7.88
2023-05-14T08:48:36.253Z,3.50
2023-05-14T08:49:46.168Z,7.80
2023-05-14T08:51:53.316Z,4.72
2023-05-14T08:52:56.692Z,5.85
2023-05-14T08:54:03.577Z,3.50
2023-05-14T08:55:07.925Z,4.07
2023-05-14T08:56:12.901Z,2.40
2023-05-14T08:57:18.733Z,2.08
2023-05-14T08:58:21.912Z,5.85
2023-05-14T08:59:25.419Z,2.42
2023-05-14T09:00:28.741Z,3.22
2023-05-14T09:01:32.269Z,5.53
2023-05-14T09:02:37.014Z,4.93
2023-05-14T09:03:40.841Z,6.93
2023-05-14T09:04:44.944Z,2.55
2023-05-14T09:05:51.641Z,1.42
2023-05-14T09:06:56.252Z,2.63
2023-05-14T09:08:00.136Z,3.42
2023-05-14T09:09:04.567Z,3.88
2023-05-14T09:10:09.226Z,3.50
2023-05-14T09:11:12.757Z,5.75
2023-05-14T09:12:15.930Z,6.55
2023-05-14T09:13:18.966Z,3.65
2023-05-14T09:14:24.035Z,3.17
2023-05-14T09:15:29.710Z,5.45
2023-05-14T09:16:33.706Z,3.90
2023-05-14T09:17:39.829Z,3.60
2023-05-14T09:18:46.373Z,1.67
2023-05-14T09:19:49.674Z,4.78
2023-05-14T09:20:53.111Z,3.75
2023-05-14T09:21:59.148Z,3.97
2023-05-14T09:23:02.428Z,3.15
2023-05-14T09:24:08.766Z,1.45
2023-05-14T09:25:13.147Z,5.70
2023-05-14T09:26:18.871Z,3.00
2023-05-14T09:27:22.212Z,3.28
2023-05-14T09:28:28.155Z,4.13
2023-05-14T09:29:31.810Z,2.35
2023-05-14T09:30:37.065Z,2.80
2023-05-14T09:31:40.271Z,10.10
2023-05-14T09:32:46.045Z,3.20
2023-05-14T09:33:53.266Z,3.22
2023-05-14T09:34:57.339Z,5.47
2023-05-14T09:36:02.130Z,6.95
2023-05-14T09:37:10.238Z,5.70
2023-05-14T09:38:13.356Z,2.08
2023-05-14T09:39:17.482Z,7.30
2023-05-14T09:40:23.646Z,1.38
2023-05-14T09:41:27.226Z,3.30
2023-05-14T09:42:30.562Z,4.18
2023-05-14T09:43:33.724Z,1.90
2023-05-14T09:44:38.162Z,1.77
2023-05-14T09:45:41.819Z,3.17
2023-05-14T09:46:46.421Z,6.72
2023-05-14T09:47:50.431Z,3.72
2023-05-14T09:48:55.577Z,3.08
2023-05-14T09:49:58.946Z,4.07
2023-05-14T09:51:04.079Z,2.10
2023-05-14T09:52:08.506Z,7.25
2023-05-14T09:53:12.412Z,5.25
2023-05-14T09:54:16.052Z,7.15
2023-05-14T09:55:20.918Z,3.30
2023-05-14T09:56:24.141Z,3.03
2023-05-14T09:57:27.587Z,8.82
2023-05-14T09:58:30.885Z,7.28
2023-05-14T09:59:34.426Z,5.55
2023-05-14T10:00:38.757Z,3.50
2023-05-14T10:01:44.424Z,4.38
2023-05-14T10:02:50.089Z,6.55
2023-05-14T10:03:57.441Z,3.80
2023-05-14T10:05:05.972Z,1.88
2023-05-14T10:06:10.626Z,4.93
2023-05-14T10:07:14.446Z,3.75
2023-05-14T10:08:26.802Z,3.72
2023-05-14T10:09:30.448Z,3.35
2023-05-14T10:10:35.576Z,2.30
2023-05-14T10:11:43.048Z,3.45
2023-05-14T10:13:15.595Z,1.30
2023-05-14T10:14:49.848Z,1.92
2023-05-14T10:16:11.359Z,9.07
2023-05-14T10:17:18.485Z,5.05
2023-05-14T10:18:25.110Z,5.68
2023-05-14T10:19:31.428Z,6.13
2023-05-14T10:20:36.848Z,4.25
2023-05-14T10:21:44.758Z,2.92
2023-05-14T10:22:48.067Z,1.70
2023-05-14T10:23:52.249Z,3.65
2023-05-14T10:24:56.661Z,9.05
2023-05-14T10:26:00.688Z,7.97
2023-05-14T10:27:03.821Z,2.53
2023-05-14T10:28:07.313Z,2.70
2023-05-14T10:29:11.555Z,2.40
2023-05-14T10:30:14.794Z,3.88
2023-05-14T10:31:17.874Z,3.22
2023-05-14T10:32:25.154Z,1.85
2023-05-14T10:33:28.745Z,2.38
2023-05-14T10:34:33.594Z,13.23
2023-05-14T10:36:02.113Z,6.20
2023-05-14T10:37:11.690Z,1.73
2023-05-14T10:38:15.771Z,1.80
2023-05-14T10:39:18.694Z,3.10
2023-05-14T10:40:25.163Z,1.38
2023-05-14T10:41:28.532Z,5.22
2023-05-14T10:42:40.762Z,3.17
2023-05-14T10:43:44.593Z,3.53
2023-05-14T10:45:09.097Z,2.13
2023-05-14T10:46:14.830Z,3.40
2023-05-14T10:47:18.984Z,2.28
2023-05-14T10:48:22.449Z,2.40
2023-05-14T10:49:42.388Z,3.05
2023-05-14T10:50:49.984Z,5.45
2023-05-14T10:51:54.389Z,7.43
2023-05-14T10:52:58.282Z,4.38
2023-05-14T10:54:01.858Z,4.25
2023-05-14T10:55:07.859Z,2.35
2023-05-14T10:56:14.207Z,3.05
2023-05-14T10:57:19.735Z,4.00
2023-05-14T10:58:22.887Z,2.08
2023-05-14T10:59:28.563Z,1.60
2023-05-14T11:00:35.503Z,4.13
2023-05-14T11:01:41.324Z,3.75
2023-05-14T11:02:45.155Z,5.35
2023-05-14T11:03:53.250Z,3.97
2023-05-14T11:05:06.637Z,7.35
2023-05-14T11:06:12.451Z,2.38
2023-05-14T11:07:15.847Z,9.20
2023-05-14T11:08:22.388Z,5.97
2023-05-14T11:09:27.307Z,2.17
2023-05-14T11:10:32.335Z,4.55
2023-05-14T11:11:35.877Z,4.93
2023-05-14T11:12:44.769Z,1.88
2023-05-14T11:13:49.018Z,6.47
2023-05-14T11:14:52.221Z,3.17
2023-05-14T11:15:56.882Z,2.05
2023-05-14T11:17:00.294Z,4.13
2023-05-14T11:18:03.535Z,6.15
2023-05-14T11:19:06.607Z,3.10
2023-05-14T11:20:11.465Z,4.70
2023-05-14T11:21:14.502Z,1.90
2023-05-14T11:22:17.973Z,5.25
2023-05-14T11:23:25.297Z,5.07
2023-05-14T11:24:28.359Z,1.98
2023-05-14T11:25:31.724Z,5.47
2023-05-14T11:26:35.648Z,6.82
2023-05-14T11:27:39.618Z,1.75
2023-05-14T11:28:42.729Z,1.95
2023-05-14T11:29:47.632Z,3.67
2023-05-14T11:30:52.620Z,2.92
2023-05-14T11:31:56.410Z,1.88
2023-05-14T11:33:02.072Z,4.40
2023-05-14T11:34:08.113Z,2.05
2023-05-14T11:35:15.762Z,4.28
2023-05-14T11:36:22.340Z,7.68
2023-05-14T11:37:30.736Z,2.72
2023-05-14T11:38:34.094Z,5.10
2023-05-14T11:39:40.923Z,4.25
2023-05-14T11:40:58.840Z,9.32
2023-05-14T11:42:11.862Z,5.00
2023-05-14T11:43:14.892Z,5.30
2023-05-14T11:44:18.146Z,3.50
2023-05-14T11:45:29.828Z,2.60
2023-05-14T11:46:32.876Z,3.75
2023-05-14T11:47:35.948Z,7.22
2023-05-14T11:48:39.008Z,1.48
2023-05-14T11:49:42.074Z,5.65
2023-05-14T11:50:53.236Z,5.18
2023-05-14T11:52:06.690Z,4.80
2023-05-14T11:53:09.763Z,4.53
2023-05-14T11:54:14.805Z,2.58
2023-05-14T11:55:18.230Z,3.15
2023-05-14T11:56:22.778Z,6.55
2023-05-14T11:57:26.130Z,4.32
2023-05-14T11:58:34.008Z,2.88
2023-05-14T11:59:38.107Z,2.72
2023-05-14T12:00:41.623Z,4.25
2023-05-14T12:01:50.678Z,3.50
2023-05-14T12:02:55.082Z,3.97
2023-05-14T12:04:00.845Z,11.93
2023-05-14T12:05:07.258Z,6.65
2023-05-14T12:06:10.298Z,4.50
2023-05-14T12:07:16.674Z,2.40
2023-05-14T12:08:37.884Z,4.97
2023-05-14T12:09:50.161Z,1.98
2023-05-14T12:10:58.306Z,2.45
2023-05-14T12:12:12.580Z,4.30
2023-05-14T12:13:17.572Z,9.05
2023-05-14T12:14:24.514Z,3.78
2023-05-14T12:15:27.677Z,2.67
2023-05-14T12:16:35.573Z,3.70
2023-05-14T12:17:41.179Z,2.72
2023-05-14T12:18:44.396Z,2.17
2023-05-14T12:19:52.993Z,5.18
2023-05-14T12:21:01.748Z,2.03
2023-05-14T12:22:05.373Z,2.72
2023-05-14T12:23:11.569Z,1.73
2023-05-14T12:24:20.177Z,3.03
2023-05-14T12:25:27.311Z,4.00
2023-05-14T12:26:34.289Z,2.63
2023-05-14T12:27:37.868Z,4.88
2023-05-14T12:28:43.487Z,2.17
2023-05-14T12:30:12.818Z,4.60
2023-05-14T12:31:29.905Z,7.78
2023-05-14T12:32:37.965Z,2.58
2023-05-14T12:33:41.212Z,13.88
2023-05-14T12:34:44.178Z,5.97
2023-05-14T12:35:50.821Z,7.13
2023-05-14T12:36:54.551Z,3.78
2023-05-14T12:37:57.690Z,3.90
2023-05-14T12:39:03.834Z,5.22
2023-05-14T12:40:13.686Z,4.30
2023-05-14T12:41:18.430Z,3.22
2023-05-14T12:42:24.121Z,2.10
2023-05-14T12:43:31.576Z,3.05
2023-05-14T12:44:34.736Z,9.75
2023-05-14T12:45:40.592Z,4.03
2023-05-14T12:46:43.856Z,5.88
2023-05-14T12:47:47.222Z,4.95
2023-05-14T12:48:52.357Z,3.03
2023-05-14T12:49:56.383Z,3.00
2023-05-14T12:50:59.453Z,5.60
2023-05-14T12:52:19.432Z,2.95
2023-05-14T12:53:26.290Z,3.72
2023-05-14T12:54:29.312Z,4.35
2023-05-14T12:55:34.249Z,2.03
2023-05-14T12:56:39.284Z,3.40
2023-05-14T12:57:42.520Z,12.13
2023-05-14T12:58:46.798Z,5.47
2023-05-14T12:59:51.122Z,2.10
2023-05-14T13:00:54.152Z,2.65
2023-05-14T13:01:57.455Z,4.30
2023-05-14T13:03:00.819Z,1.50
2023-05-14T13:04:05.621Z,1.85
2023-05-14T13:05:09.373Z,2.00
2023-05-14T13:06:12.381Z,2.30
2023-05-14T13:07:18.407Z,6.50
2023-05-14T13:08:26.625Z,2.97
2023-05-14T13:09:29.603Z,1.80
2023-05-14T13:10:32.728Z,5.07
2023-05-14T13:11:36.200Z,1.60
2023-05-14T13:12:39.246Z,5.55
2023-05-14T13:13:42.349Z,11.90
2023-05-14T13:14:45.681Z,5.53
2023-05-14T13:15:49.056Z,6.10
2023-05-14T13:16:52.139Z,2.03
2023-05-14T13:18:04.272Z,2.05
2023-05-14T13:19:07.753Z,4.30
2023-05-14T13:20:11.480Z,2.95
2023-05-14T13:21:14.618Z,3.03
2023-05-14T13:22:18.928Z,2.58
2023-05-14T13:23:21.964Z,4.18
2023-05-14T13:24:25.743Z,3.95
2023-05-14T13:25:29.043Z,4.38
2023-05-14T13:26:37.471Z,14.23
2023-05-14T13:27:40.421Z,6.50
2023-05-14T13:28:46.733Z,10.20
2023-05-14T13:29:55.932Z,3.83
2023-05-14T13:31:14.439Z,2.80
2023-05-14T13:32:17.604Z,5.57
2023-05-14T13:33:20.683Z,4.03
2023-05-14T13:34:23.837Z,2.33
2023-05-14T13:35:27.024Z,3.20
2023-05-14T13:36:31.674Z,3.35
2023-05-14T13:37:34.737Z,3.90
2023-05-14T13:38:44.599Z,2.67
2023-05-14T13:39:51.492Z,5.85
2023-05-14T13:40:57.286Z,1.92
2023-05-14T13:42:01.173Z,2.88
2023-05-14T13:43:04.544Z,2.83
2023-05-14T13:44:08.054Z,2.78
2023-05-14T13:45:13.015Z,3.58
2023-05-14T13:46:16.308Z,5.30
2023-05-14T13:47:19.416Z,6.25
2023-05-14T13:48:22.581Z,5.07
2023-05-14T13:49:25.935Z,2.75
2023-05-14T13:50:28.913Z,3.38
2023-05-14T13:51:31.848Z,2.80
2023-05-14T13:52:34.992Z,5.63
2023-05-14T13:53:41.354Z,10.70
2023-05-14T13:54:44.685Z,2.90
2023-05-14T13:55:49.245Z,10.88
2023-05-14T13:56:52.681Z,2.53
2023-05-14T13:57:55.902Z,6.85
2023-05-14T13:58:59.188Z,5.10
2023-05-14T14:00:02.410Z,5.28
2023-05-14T14:01:07.736Z,3.58
2023-05-14T14:02:11.021Z,1.80
2023-05-14T14:03:14.098Z,7.47
2023-05-14T14:04:17.984Z,2.35
2023-05-14T14:05:21.270Z,4.20
2023-05-14T14:06:25.966Z,2.63
2023-05-14T14:07:29.250Z,4.93
2023-05-14T14:08:32.496Z,4.43
2023-05-14T14:09:36.937Z,4.70
2023-05-14T14:10:42.484Z,6.25
2023-05-14T14:11:45.790Z,4.38